createdAt,value
2022-11-23T00:00:11.734Z,11.40
2022-11-23T00:00:23.674Z,11.65
2022-11-23T00:00:36.045Z,12.18
2022-11-23T00:00:47.948Z,12.15
2022-11-23T00:01:20.057Z,11.00
2022-11-23T00:01:34.270Z,9.85
2022-11-23T00:01:46.174Z,10.43
2022-11-23T00:01:57.925Z,10.98
2022-11-23T00:02:09.781Z,10.77
2022-11-23T00:02:21.665Z,11.00
2022-11-23T00:02:33.499Z,11.38
2022-11-23T00:02:45.309Z,11.18
2022-11-23T00:02:57.809Z,10.63
2022-11-23T00:03:14.971Z,10.55
2022-11-23T00:03:26.717Z,9.95
2022-11-23T00:03:38.628Z,10.35
2022-11-23T00:03:53.620Z,10.95
2022-11-23T00:04:10.542Z,10.95
2022-11-23T00:04:25.003Z,10.75
2022-11-23T00:04:36.862Z,11.27
2022-11-23T00:04:48.711Z,11.38
2022-11-23T00:05:00.628Z,12.07
2022-11-23T00:05:12.591Z,11.60
2022-11-23T00:05:25.342Z,12.65
2022-11-23T00:05:37.065Z,12.38
2022-11-23T00:05:49.024Z,12.52
2022-11-23T00:06:02.708Z,12.57
2022-11-23T00:06:14.705Z,12.18
2022-11-23T00:06:26.799Z,12.32
2022-11-23T00:06:38.704Z,12.52
2022-11-23T00:06:50.421Z,12.90
2022-11-23T00:07:02.125Z,12.90
2022-11-23T00:07:13.982Z,12.73
2022-11-23T00:07:25.812Z,12.43
2022-11-23T00:07:37.656Z,12.30
2022-11-23T00:07:49.474Z,12.30
2022-11-23T00:08:01.486Z,12.18
2022-11-23T00:08:13.455Z,12.75
2022-11-23T00:08:25.176Z,12.90
2022-11-23T00:08:37.261Z,12.77
2022-11-23T00:08:49.532Z,12.43
2022-11-23T00:09:01.494Z,12.68
2022-11-23T00:09:13.441Z,13.13
2022-11-23T00:09:25.161Z,13.40
2022-11-23T00:09:37.062Z,13.18
2022-11-23T00:09:48.955Z,13.95
2022-11-23T00:10:00.729Z,13.85
2022-11-23T00:10:12.643Z,14.45
2022-11-23T00:10:24.525Z,13.23
2022-11-23T00:10:36.293Z,13.30
2022-11-23T00:10:48.101Z,12.38
2022-11-23T00:11:00.137Z,11.85
2022-11-23T00:11:11.981Z,12.20
2022-11-23T00:11:24.827Z,12.00
2022-11-23T00:11:36.694Z,11.75
2022-11-23T00:11:48.615Z,12.15
2022-11-23T00:12:00.377Z,12.43
2022-11-23T00:12:12.225Z,12.60
2022-11-23T00:12:24.165Z,12.25
2022-11-23T00:12:36.089Z,12.27
2022-11-23T00:12:47.955Z,12.65
2022-11-23T00:12:59.732Z,12.27
2022-11-23T00:13:11.599Z,12.15
2022-11-23T00:13:23.370Z,11.82
2022-11-23T00:13:35.438Z,12.65
2022-11-23T00:13:47.609Z,12.85
2022-11-23T00:13:59.950Z,13.02
2022-11-23T00:14:11.661Z,12.73
2022-11-23T00:14:23.537Z,11.95
2022-11-23T00:14:35.651Z,12.05
2022-11-23T00:14:47.409Z,12.00
2022-11-23T00:14:59.138Z,11.75
2022-11-23T00:15:12.669Z,11.52
2022-11-23T00:15:24.356Z,12.13
2022-11-23T00:15:36.213Z,11.63
2022-11-23T00:15:48.081Z,12.88
2022-11-23T00:15:59.950Z,12.90
2022-11-23T00:16:22.866Z,13.63
2022-11-23T00:16:34.722Z,13.30
2022-11-23T00:16:46.600Z,12.90
2022-11-23T00:16:58.335Z,12.88
2022-11-23T00:17:39.854Z,12.82
2022-11-23T00:17:51.596Z,14.27
2022-11-23T00:18:03.538Z,14.48
2022-11-23T00:18:15.787Z,13.43
2022-11-23T00:18:27.496Z,13.95
2022-11-23T00:18:39.748Z,14.15
2022-11-23T00:18:56.346Z,13.90
2022-11-23T00:19:09.142Z,13.18
2022-11-23T00:19:20.916Z,12.57
2022-11-23T00:19:33.011Z,12.43
2022-11-23T00:19:45.012Z,12.35
2022-11-23T00:19:56.790Z,12.68
2022-11-23T00:20:09.207Z,12.18
2022-11-23T00:20:20.926Z,12.60
2022-11-23T00:20:32.897Z,12.43
2022-11-23T00:20:45.432Z,12.10
2022-11-23T00:20:57.383Z,10.50
2022-11-23T00:21:12.922Z,11.18
2022-11-23T00:21:26.442Z,11.88
2022-11-23T00:21:38.485Z,11.30
2022-11-23T00:21:50.248Z,11.48
2022-11-23T00:22:01.987Z,11.52
2022-11-23T00:22:13.699Z,11.02
2022-11-23T00:22:25.584Z,11.60
2022-11-23T00:22:37.315Z,11.28
2022-11-23T00:22:49.105Z,11.02
2022-11-23T00:23:00.900Z,10.45
2022-11-23T00:23:12.790Z,10.35
2022-11-23T00:23:24.667Z,10.48
2022-11-23T00:23:37.049Z,10.85
2022-11-23T00:23:49.056Z,11.88
2022-11-23T00:24:01.133Z,12.35
2022-11-23T00:24:13.255Z,11.63
2022-11-23T00:24:25.257Z,11.43
2022-11-23T00:24:37.056Z,11.38
2022-11-23T00:24:48.919Z,10.88
2022-11-23T00:25:00.941Z,10.27
2022-11-23T00:25:12.846Z,10.52
2022-11-23T00:25:24.872Z,10.73
2022-11-23T00:25:36.684Z,11.32
2022-11-23T00:25:48.565Z,11.73
2022-11-23T00:26:00.412Z,11.75
2022-11-23T00:26:12.805Z,10.88
2022-11-23T00:26:24.614Z,10.90
2022-11-23T00:26:36.494Z,10.98
2022-11-23T00:26:48.209Z,11.32
2022-11-23T00:26:59.976Z,11.98
2022-11-23T00:27:11.792Z,11.90
2022-11-23T00:27:23.715Z,11.77
2022-11-23T00:27:35.516Z,11.57
2022-11-23T00:27:47.462Z,11.27
2022-11-23T00:27:59.347Z,11.23
2022-11-23T00:28:11.118Z,11.07
2022-11-23T00:28:22.902Z,10.88
2022-11-23T00:28:40.042Z,10.52
2022-11-23T00:28:51.814Z,10.98
2022-11-23T00:29:03.544Z,10.65
2022-11-23T00:29:15.442Z,10.40
2022-11-23T00:29:27.407Z,10.32
2022-11-23T00:29:39.538Z,10.45
2022-11-23T00:29:51.337Z,10.32
2022-11-23T00:30:03.404Z,10.80
2022-11-23T00:30:15.316Z,10.88
2022-11-23T00:30:27.278Z,10.55
2022-11-23T00:30:39.122Z,10.60
2022-11-23T00:30:51.226Z,11.55
2022-11-23T00:31:02.989Z,10.55
2022-11-23T00:31:17.123Z,9.85
2022-11-23T00:31:29.010Z,9.85
2022-11-23T00:31:40.885Z,10.77
2022-11-23T00:31:52.986Z,11.25
2022-11-23T00:32:05.332Z,11.30
2022-11-23T00:32:17.170Z,11.05
2022-11-23T00:32:32.247Z,10.75
2022-11-23T00:32:44.148Z,11.13
2022-11-23T00:32:56.283Z,11.07
2022-11-23T00:33:08.191Z,11.38
2022-11-23T00:33:19.934Z,11.07
2022-11-23T00:33:31.953Z,12.57
2022-11-23T00:33:47.984Z,13.30
2022-11-23T00:33:59.867Z,12.88
2022-11-23T00:34:11.751Z,12.27
2022-11-23T00:34:23.630Z,11.85
2022-11-23T00:34:35.509Z,11.55
2022-11-23T00:34:47.375Z,11.98
2022-11-23T00:34:59.115Z,11.90
2022-11-23T00:35:11.014Z,11.65
2022-11-23T00:35:23.684Z,11.57
2022-11-23T00:35:35.507Z,11.30
2022-11-23T00:35:47.387Z,11.73
2022-11-23T00:36:03.241Z,11.63
2022-11-23T00:36:15.966Z,11.20
2022-11-23T00:36:27.884Z,11.02
2022-11-23T00:36:39.669Z,10.82
2022-11-23T00:36:51.683Z,10.90
2022-11-23T00:37:03.450Z,10.93
2022-11-23T00:37:15.400Z,11.10
2022-11-23T00:37:27.281Z,10.75
2022-11-23T00:37:39.066Z,11.30
2022-11-23T00:37:50.971Z,10.57
2022-11-23T00:38:02.922Z,9.90
2022-11-23T00:38:14.838Z,10.25
2022-11-23T00:38:26.795Z,10.80
2022-11-23T00:38:38.876Z,10.70
2022-11-23T00:38:51.109Z,10.35
2022-11-23T00:39:03.175Z,10.20
2022-11-23T00:39:14.965Z,10.50
2022-11-23T00:39:26.760Z,11.13
2022-11-23T00:39:38.797Z,11.43
2022-11-23T00:39:50.683Z,11.77
2022-11-23T00:40:02.563Z,11.30
2022-11-23T00:40:14.735Z,11.07
2022-11-23T00:40:26.590Z,11.35
2022-11-23T00:40:38.471Z,11.40
2022-11-23T00:40:50.389Z,11.48
2022-11-23T00:41:07.921Z,11.07
2022-11-23T00:41:25.208Z,11.02
2022-11-23T00:41:36.985Z,11.18
2022-11-23T00:41:48.903Z,10.32
2022-11-23T00:42:00.698Z,9.85
2022-11-23T00:42:12.638Z,9.98
2022-11-23T00:42:24.487Z,10.48
2022-11-23T00:42:38.233Z,10.70
2022-11-23T00:42:50.247Z,9.98
2022-11-23T00:43:02.075Z,9.98
2022-11-23T00:43:13.947Z,9.77
2022-11-23T00:43:25.994Z,9.55
2022-11-23T00:43:37.828Z,9.18
2022-11-23T00:43:49.683Z,9.32
2022-11-23T00:44:01.460Z,9.13
2022-11-23T00:44:13.386Z,9.60
2022-11-23T00:44:25.144Z,9.65
2022-11-23T00:44:37.073Z,9.93
2022-11-23T00:44:48.938Z,9.30
2022-11-23T00:45:00.700Z,8.75
2022-11-23T00:45:12.418Z,8.98
2022-11-23T00:45:24.278Z,10.10
2022-11-23T00:45:36.208Z,10.40
2022-11-23T00:45:50.937Z,9.80
2022-11-23T00:46:27.163Z,9.30
2022-11-23T00:46:38.945Z,8.77
2022-11-23T00:46:50.816Z,8.98
2022-11-23T00:47:02.590Z,8.77
2022-11-23T00:47:14.566Z,8.98
2022-11-23T00:47:26.703Z,8.90
2022-11-23T00:47:38.690Z,8.93
2022-11-23T00:47:50.541Z,9.14
2022-11-23T00:48:02.712Z,9.52
2022-11-23T00:48:14.539Z,9.50
2022-11-23T00:48:26.315Z,9.00
2022-11-23T00:48:38.297Z,8.75
2022-11-23T00:48:52.059Z,9.70
2022-11-23T00:49:04.537Z,10.25
2022-11-23T00:49:16.509Z,9.70
2022-11-23T00:49:28.323Z,9.50
2022-11-23T00:49:40.282Z,9.15
2022-11-23T00:49:52.026Z,9.38
2022-11-23T00:50:04.231Z,9.88
2022-11-23T00:50:16.718Z,10.05
2022-11-23T00:50:28.546Z,10.32
2022-11-23T00:50:40.281Z,10.38
2022-11-23T00:50:52.049Z,9.95
2022-11-23T00:51:06.240Z,9.32
2022-11-23T00:51:23.800Z,9.55
2022-11-23T00:51:36.473Z,9.77
2022-11-23T00:51:48.352Z,9.50
2022-11-23T00:52:00.221Z,9.50
2022-11-23T00:52:11.936Z,9.63
2022-11-23T00:52:24.076Z,9.90
2022-11-23T00:52:35.961Z,8.85
2022-11-23T00:52:47.664Z,8.82
2022-11-23T00:52:59.397Z,8.52
2022-11-23T00:53:11.296Z,9.23
2022-11-23T00:53:23.068Z,9.68
2022-11-23T00:53:35.846Z,10.18
2022-11-23T00:53:47.637Z,10.02
2022-11-23T00:54:00.064Z,9.23
2022-11-23T00:54:12.055Z,9.00
2022-11-23T00:54:23.777Z,8.52
2022-11-23T00:54:35.565Z,9.13
2022-11-23T00:54:47.261Z,9.27
2022-11-23T00:54:59.033Z,9.93
2022-11-23T00:55:10.924Z,10.15
2022-11-23T00:55:22.681Z,9.60
2022-11-23T00:55:34.561Z,9.90
2022-11-23T00:55:55.498Z,10.35
2022-11-23T00:56:07.487Z,9.90
2022-11-23T00:56:19.880Z,9.32
2022-11-23T00:56:32.643Z,9.73
2022-11-23T00:56:44.438Z,10.13
2022-11-23T00:56:56.159Z,10.00
2022-11-23T00:57:08.004Z,9.48
2022-11-23T00:57:19.797Z,9.38
2022-11-23T00:57:33.882Z,9.18
2022-11-23T00:57:45.952Z,8.95
2022-11-23T00:57:58.611Z,9.45
2022-11-23T00:58:10.402Z,9.48
2022-11-23T00:58:22.677Z,9.82
2022-11-23T00:58:34.762Z,9.70
2022-11-23T00:58:50.952Z,9.43
2022-11-23T00:59:03.494Z,9.48
2022-11-23T00:59:15.282Z,9.57
2022-11-23T00:59:29.793Z,9.30
2022-11-23T00:59:41.940Z,9.38
2022-11-23T00:59:53.625Z,9.57
2022-11-23T01:00:07.410Z,9.30
2022-11-23T01:00:19.261Z,9.27
2022-11-23T01:00:31.019Z,9.02
2022-11-23T01:00:42.919Z,9.43
2022-11-23T01:01:16.122Z,10.02
2022-11-23T01:01:31.065Z,9.95
2022-11-23T01:01:42.947Z,9.60
2022-11-23T01:01:54.764Z,9.43
2022-11-23T01:02:06.791Z,8.80
2022-11-23T01:02:18.704Z,8.93
2022-11-23T01:02:30.486Z,9.25
2022-11-23T01:02:42.214Z,9.75
2022-11-23T01:02:54.105Z,9.35
2022-11-23T01:03:05.955Z,10.00
2022-11-23T01:03:17.855Z,10.52
2022-11-23T01:03:30.324Z,10.13
2022-11-23T01:03:48.149Z,9.88
2022-11-23T01:04:01.571Z,9.60
2022-11-23T01:04:13.358Z,9.65
2022-11-23T01:04:25.788Z,9.93
2022-11-23T01:04:39.505Z,9.90
2022-11-23T01:04:51.234Z,10.25
2022-11-23T01:05:04.692Z,9.85
2022-11-23T01:05:16.529Z,8.95
2022-11-23T01:05:28.244Z,9.07
2022-11-23T01:05:40.019Z,9.45
2022-11-23T01:05:51.784Z,9.13
2022-11-23T01:06:17.994Z,8.52
2022-11-23T01:06:32.817Z,8.60
2022-11-23T01:06:44.696Z,8.82
2022-11-23T01:06:59.863Z,8.45
2022-11-23T01:07:11.658Z,8.55
2022-11-23T01:07:23.695Z,8.63
2022-11-23T01:07:35.858Z,9.18
2022-11-23T01:07:47.778Z,8.90
2022-11-23T01:07:59.620Z,9.65
2022-11-23T01:08:11.424Z,9.65
2022-11-23T01:08:23.203Z,9.52
2022-11-23T01:08:35.255Z,9.05
2022-11-23T01:08:54.421Z,8.82
2022-11-23T01:09:24.983Z,9.40
2022-11-23T01:09:36.748Z,10.68
2022-11-23T01:09:48.507Z,10.50
2022-11-23T01:10:00.290Z,9.63
2022-11-23T01:10:12.260Z,9.30
2022-11-23T01:10:24.133Z,8.57
2022-11-23T01:10:35.854Z,8.43
2022-11-23T01:10:47.648Z,8.80
2022-11-23T01:11:05.193Z,9.20
2022-11-23T01:11:17.221Z,9.18
2022-11-23T01:11:30.185Z,9.02
2022-11-23T01:11:42.093Z,9.05
2022-11-23T01:11:54.432Z,9.32
2022-11-23T01:12:06.599Z,9.20
2022-11-23T01:12:18.516Z,8.73
2022-11-23T01:12:30.336Z,9.60
2022-11-23T01:12:42.242Z,10.30
2022-11-23T01:12:54.189Z,11.65
2022-11-23T01:13:06.062Z,12.48
2022-11-23T01:13:17.791Z,13.27
2022-11-23T01:13:29.924Z,13.07
2022-11-23T01:13:41.843Z,12.90
2022-11-23T01:13:53.689Z,12.30
2022-11-23T01:14:05.629Z,11.27
2022-11-23T01:14:17.419Z,10.57
2022-11-23T01:14:29.295Z,10.85
2022-11-23T01:14:41.243Z,11.10
2022-11-23T01:14:54.161Z,10.45
2022-11-23T01:15:06.529Z,9.88
2022-11-23T01:15:18.262Z,9.60
2022-11-23T01:15:30.093Z,9.00
2022-11-23T01:15:50.143Z,8.60
2022-11-23T01:16:02.016Z,9.15
2022-11-23T01:16:34.590Z,9.68
2022-11-23T01:16:46.538Z,10.75
2022-11-23T01:16:58.347Z,12.07
2022-11-23T01:17:10.263Z,11.88
2022-11-23T01:17:22.173Z,10.23
2022-11-23T01:17:34.081Z,10.55
2022-11-23T01:17:45.928Z,11.02
2022-11-23T01:17:57.673Z,10.50
2022-11-23T01:18:09.488Z,10.60
2022-11-23T01:18:21.465Z,10.65
2022-11-23T01:18:33.400Z,10.63
2022-11-23T01:18:47.583Z,10.25
2022-11-23T01:19:01.746Z,10.90
2022-11-23T01:19:16.714Z,11.25
2022-11-23T01:19:28.691Z,11.25
2022-11-23T01:19:40.543Z,11.07
2022-11-23T01:19:52.373Z,11.10
2022-11-23T01:20:04.911Z,11.02
2022-11-23T01:20:16.743Z,10.65
2022-11-23T01:20:28.586Z,11.23
2022-11-23T01:20:40.588Z,11.20
2022-11-23T01:20:52.574Z,11.60
2022-11-23T01:21:04.503Z,11.43
2022-11-23T01:21:16.391Z,10.93
2022-11-23T01:21:29.749Z,10.20
2022-11-23T01:21:41.634Z,9.77
2022-11-23T01:21:53.536Z,10.48
2022-11-23T01:22:05.321Z,11.18
2022-11-23T01:22:17.202Z,10.75
2022-11-23T01:22:29.024Z,10.60
2022-11-23T01:22:41.003Z,11.90
2022-11-23T01:22:53.378Z,12.58
2022-11-23T01:23:05.257Z,12.57
2022-11-23T01:23:17.354Z,11.98
2022-11-23T01:23:30.581Z,10.73
2022-11-23T01:23:42.362Z,10.15
2022-11-23T01:23:54.495Z,10.35
2022-11-23T01:24:17.954Z,11.18
2022-11-23T01:24:29.883Z,11.43
2022-11-23T01:24:41.586Z,10.57
2022-11-23T01:24:53.353Z,11.50
2022-11-23T01:25:05.912Z,11.57
2022-11-23T01:25:17.779Z,11.38
2022-11-23T01:25:29.582Z,11.38
2022-11-23T01:25:41.486Z,11.55
2022-11-23T01:25:57.023Z,11.43
2022-11-23T01:26:10.039Z,11.45
2022-11-23T01:26:21.952Z,11.63
2022-11-23T01:26:33.881Z,11.93
2022-11-23T01:26:46.088Z,12.23
2022-11-23T01:26:57.893Z,12.32
2022-11-23T01:27:09.620Z,12.43
2022-11-23T01:27:21.382Z,13.32
2022-11-23T01:27:33.252Z,12.35
2022-11-23T01:27:45.103Z,11.75
2022-11-23T01:27:56.957Z,11.27
2022-11-23T01:28:08.727Z,10.93
2022-11-23T01:28:20.502Z,12.10
2022-11-23T01:28:32.359Z,12.52
2022-11-23T01:28:44.434Z,12.50
2022-11-23T01:28:56.209Z,12.15
2022-11-23T01:29:08.275Z,11.63
2022-11-23T01:29:20.384Z,11.10
2022-11-23T01:29:32.561Z,10.70
2022-11-23T01:29:44.541Z,10.27
2022-11-23T01:29:56.501Z,9.63
2022-11-23T01:30:09.280Z,8.95
2022-11-23T01:30:21.168Z,9.07
2022-11-23T01:30:34.547Z,9.95
2022-11-23T01:30:46.376Z,10.93
2022-11-23T01:31:08.333Z,10.57
2022-11-23T01:31:22.677Z,9.57
2022-11-23T01:31:34.473Z,9.43
2022-11-23T01:31:47.107Z,9.32
2022-11-23T01:31:59.016Z,9.60
2022-11-23T01:32:11.000Z,10.00
2022-11-23T01:32:22.766Z,10.45
2022-11-23T01:32:34.523Z,9.88
2022-11-23T01:32:46.244Z,9.30
2022-11-23T01:32:57.932Z,9.63
2022-11-23T01:33:09.932Z,9.82
2022-11-23T01:33:21.680Z,10.73
2022-11-23T01:33:33.646Z,10.60
2022-11-23T01:33:45.563Z,10.35
2022-11-23T01:34:00.193Z,10.15
2022-11-23T01:34:12.482Z,10.18
2022-11-23T01:34:24.354Z,10.57
2022-11-23T01:34:36.200Z,10.93
2022-11-23T01:34:48.114Z,10.88
2022-11-23T01:34:59.900Z,10.38
2022-11-23T01:35:11.966Z,9.80
2022-11-23T01:35:23.766Z,9.95
2022-11-23T01:35:35.753Z,10.82
2022-11-23T01:35:47.822Z,11.25
2022-11-23T01:35:59.595Z,11.25
2022-11-23T01:36:12.704Z,10.52
2022-11-23T01:36:26.665Z,10.02
2022-11-23T01:36:38.596Z,9.27
2022-11-23T01:36:50.535Z,9.32
2022-11-23T01:37:02.279Z,10.45
2022-11-23T01:37:14.103Z,11.60
2022-11-23T01:37:25.916Z,11.52
2022-11-23T01:37:37.962Z,10.32
2022-11-23T01:37:49.867Z,10.43
2022-11-23T01:38:01.680Z,9.77
2022-11-23T01:38:17.986Z,9.32
2022-11-23T01:38:30.343Z,9.82
2022-11-23T01:38:42.694Z,10.82
2022-11-23T01:38:55.325Z,10.73
2022-11-23T01:39:07.207Z,10.55
2022-11-23T01:39:19.088Z,10.57
2022-11-23T01:39:31.071Z,10.60
2022-11-23T01:39:43.211Z,11.13
2022-11-23T01:39:55.014Z,10.88
2022-11-23T01:40:08.023Z,10.10
2022-11-23T01:40:20.002Z,9.50
2022-11-23T01:40:39.008Z,10.35
2022-11-23T01:40:50.835Z,9.93
2022-11-23T01:41:04.966Z,9.30
2022-11-23T01:41:34.040Z,9.10
2022-11-23T01:41:46.072Z,9.32
2022-11-23T01:41:57.863Z,8.60
2022-11-23T01:42:12.754Z,9.18
2022-11-23T01:43:00.533Z,9.68
2022-11-23T01:43:16.352Z,8.35
2022-11-23T01:43:28.071Z,8.43
2022-11-23T01:43:39.946Z,8.02
2022-11-23T01:43:51.987Z,9.38
2022-11-23T01:44:25.458Z,9.70
2022-11-23T01:44:39.460Z,8.88
2022-11-23T01:44:51.922Z,9.05
2022-11-23T01:45:58.563Z,8.75
2022-11-23T01:46:10.602Z,9.48
2022-11-23T01:46:22.715Z,8.32
2022-11-23T01:46:34.559Z,8.20
2022-11-23T01:46:46.293Z,8.05
2022-11-23T01:47:00.278Z,7.57
2022-11-23T01:47:12.161Z,7.70
2022-11-23T01:47:24.051Z,7.38
2022-11-23T01:47:35.938Z,7.65
2022-11-23T01:47:47.732Z,7.35
2022-11-23T01:47:59.477Z,7.65
2022-11-23T01:48:18.088Z,7.90
2022-11-23T01:48:49.694Z,8.15
2022-11-23T01:49:04.023Z,8.90
2022-11-23T01:49:15.980Z,7.90
2022-11-23T01:49:40.884Z,8.20
2022-11-23T01:49:52.670Z,7.95
2022-11-23T01:50:04.790Z,7.97
2022-11-23T01:50:16.847Z,8.02
2022-11-23T01:50:28.729Z,7.50
2022-11-23T01:50:40.572Z,7.30
2022-11-23T01:50:52.798Z,7.80
2022-11-23T01:51:07.065Z,8.43
2022-11-23T01:51:39.811Z,8.55
2022-11-23T01:51:52.775Z,7.72
2022-11-23T01:52:09.748Z,7.65
2022-11-23T01:52:24.621Z,7.68
2022-11-23T01:52:36.448Z,7.65
2022-11-23T01:52:48.211Z,7.38
2022-11-23T01:53:00.013Z,8.10
2022-11-23T01:53:11.804Z,8.00
2022-11-23T01:53:23.626Z,8.18
2022-11-23T01:53:35.538Z,7.90
2022-11-23T01:53:48.437Z,7.35
2022-11-23T01:54:11.290Z,7.05
2022-11-23T01:54:28.659Z,7.97
2022-11-23T01:54:48.397Z,8.10
2022-11-23T01:55:05.281Z,8.93
2022-11-23T01:55:18.793Z,8.30
2022-11-23T01:55:30.843Z,7.92
2022-11-23T01:55:44.002Z,8.23
2022-11-23T01:55:59.519Z,8.32
2022-11-23T01:56:15.535Z,8.43
2022-11-23T01:56:34.098Z,7.90
2022-11-23T01:56:52.461Z,7.72
2022-11-23T01:57:08.334Z,8.02
2022-11-23T01:57:26.086Z,7.85
2022-11-23T01:57:40.943Z,7.18
2022-11-23T01:57:52.784Z,7.55
2022-11-23T01:58:04.685Z,7.85
2022-11-23T01:58:19.391Z,7.72
2022-11-23T01:58:35.172Z,8.07
2022-11-23T01:58:51.146Z,8.63
2022-11-23T01:59:04.992Z,8.73
2022-11-23T01:59:17.336Z,8.80
2022-11-23T01:59:29.869Z,9.23
2022-11-23T01:59:41.883Z,9.45
2022-11-23T01:59:53.639Z,9.20
2022-11-23T02:00:06.092Z,8.32
2022-11-23T02:00:18.003Z,7.70
2022-11-23T02:00:29.789Z,7.78
2022-11-23T02:00:42.289Z,8.35
2022-11-23T02:00:54.237Z,8.63
2022-11-23T02:01:07.198Z,8.70
2022-11-23T02:01:19.325Z,8.75
2022-11-23T02:01:31.492Z,8.23
2022-11-23T02:01:44.154Z,8.43
2022-11-23T02:01:55.884Z,8.40
2022-11-23T02:02:07.770Z,8.93
2022-11-23T02:02:19.544Z,8.50
2022-11-23T02:02:31.378Z,8.82
2022-11-23T02:02:49.629Z,8.27
2022-11-23T02:03:01.609Z,8.30
2022-11-23T02:03:13.566Z,8.23
2022-11-23T02:03:25.290Z,8.45
2022-11-23T02:03:37.374Z,7.95
2022-11-23T02:03:49.202Z,8.80
2022-11-23T02:04:01.725Z,8.84
2022-11-23T02:04:18.386Z,8.13
2022-11-23T02:04:39.193Z,8.23
2022-11-23T02:04:54.210Z,7.97
2022-11-23T02:05:06.702Z,7.40
2022-11-23T02:05:20.607Z,7.88
2022-11-23T02:05:45.162Z,8.10
2022-11-23T02:06:01.664Z,8.68
2022-11-23T02:06:18.606Z,9.07
2022-11-23T02:06:30.583Z,8.95
2022-11-23T02:06:43.285Z,8.20
2022-11-23T02:06:55.072Z,8.02
2022-11-23T02:07:07.020Z,8.27
2022-11-23T02:07:18.896Z,8.13
2022-11-23T02:07:30.623Z,8.02
2022-11-23T02:07:42.459Z,8.38
2022-11-23T02:07:54.267Z,7.70
2022-11-23T02:08:06.261Z,7.57
2022-11-23T02:08:18.142Z,8.02
2022-11-23T02:08:30.049Z,8.68
2022-11-23T02:08:42.252Z,8.57
2022-11-23T02:08:54.276Z,8.75
2022-11-23T02:09:06.046Z,8.52
2022-11-23T02:09:17.931Z,8.20
2022-11-23T02:09:33.544Z,7.57
2022-11-23T02:09:45.952Z,8.40
2022-11-23T02:09:57.683Z,8.95
2022-11-23T02:10:09.742Z,8.98
2022-11-23T02:10:23.033Z,8.52
2022-11-23T02:10:34.971Z,8.90
2022-11-23T02:10:47.471Z,9.05
2022-11-23T02:10:59.289Z,8.82
2022-11-23T02:11:12.408Z,9.15
2022-11-23T02:11:24.149Z,8.77
2022-11-23T02:11:35.883Z,8.13
2022-11-23T02:11:47.782Z,8.13
2022-11-23T02:12:00.007Z,7.93
2022-11-23T02:12:13.002Z,7.55
2022-11-23T02:12:24.930Z,7.63
2022-11-23T02:12:37.743Z,8.23
2022-11-23T02:12:49.517Z,8.15
2022-11-23T02:13:03.888Z,8.32
2022-11-23T02:13:15.713Z,8.65
2022-11-23T02:13:27.972Z,8.70
2022-11-23T02:13:39.881Z,7.97
2022-11-23T02:13:51.883Z,8.13
2022-11-23T02:14:03.673Z,7.63
2022-11-23T02:14:19.057Z,7.13
2022-11-23T02:14:34.881Z,7.30
2022-11-23T02:14:46.682Z,8.45
2022-11-23T02:14:58.411Z,8.82
2022-11-23T02:15:10.653Z,9.05
2022-11-23T02:15:22.396Z,8.52
2022-11-23T02:15:34.783Z,8.25
2022-11-23T02:15:46.656Z,7.90
2022-11-23T02:15:59.379Z,7.70
2022-11-23T02:16:11.243Z,7.75
2022-11-23T02:16:23.151Z,7.53
2022-11-23T02:16:35.238Z,8.13
2022-11-23T02:16:47.117Z,8.48
2022-11-23T02:16:59.479Z,8.30
2022-11-23T02:17:11.259Z,8.15
2022-11-23T02:17:23.034Z,8.02
2022-11-23T02:17:34.788Z,7.88
2022-11-23T02:17:46.518Z,8.00
2022-11-23T02:17:59.421Z,8.35
2022-11-23T02:18:17.804Z,9.00
2022-11-23T02:18:31.275Z,8.00
2022-11-23T02:18:45.285Z,7.50
2022-11-23T02:18:57.038Z,7.60
2022-11-23T02:19:18.338Z,7.72
2022-11-23T02:19:47.722Z,8.65
2022-11-23T02:20:09.359Z,8.15
2022-11-23T02:20:21.514Z,8.70
2022-11-23T02:20:33.333Z,8.50
2022-11-23T02:20:45.277Z,7.97
2022-11-23T02:20:58.492Z,8.05
2022-11-23T02:21:10.228Z,9.05
2022-11-23T02:21:22.300Z,9.50
2022-11-23T02:21:34.098Z,9.20
2022-11-23T02:21:45.891Z,8.57
2022-11-23T02:21:57.741Z,7.57
2022-11-23T02:22:16.847Z,7.43
2022-11-23T02:22:52.245Z,7.82
2022-11-23T02:23:04.002Z,8.95
2022-11-23T02:23:21.285Z,8.48
2022-11-23T02:23:59.190Z,8.52
2022-11-23T02:24:21.061Z,9.10
2022-11-23T02:24:36.973Z,8.73
2022-11-23T02:24:49.836Z,8.52
2022-11-23T02:25:01.706Z,8.60
2022-11-23T02:25:45.486Z,8.90
2022-11-23T02:26:08.413Z,8.80
2022-11-23T02:26:28.884Z,8.07
2022-11-23T02:26:40.594Z,8.30
2022-11-23T02:26:52.337Z,8.05
2022-11-23T02:27:04.349Z,8.18
2022-11-23T02:27:16.375Z,8.23
2022-11-23T02:27:28.332Z,8.02
2022-11-23T02:27:46.603Z,8.80
2022-11-23T02:27:59.342Z,10.25
2022-11-23T02:28:19.720Z,9.40
2022-11-23T02:28:40.812Z,10.52
2022-11-23T02:29:14.488Z,13.50
2022-11-23T02:29:27.103Z,16.88
2022-11-23T02:29:39.437Z,15.93
2022-11-23T02:29:51.509Z,16.05
2022-11-23T02:30:03.716Z,16.83
2022-11-23T02:30:15.801Z,17.38
2022-11-23T02:30:29.754Z,16.42
2022-11-23T02:30:41.575Z,15.93
2022-11-23T02:30:54.615Z,15.38
2022-11-23T02:31:36.133Z,10.45
2022-11-23T02:31:48.055Z,10.65
2022-11-23T02:31:59.883Z,11.35
2022-11-23T02:32:11.706Z,12.75
2022-11-23T02:32:24.209Z,12.98
2022-11-23T02:32:35.935Z,12.68
2022-11-23T02:32:47.686Z,12.70
2022-11-23T02:32:59.445Z,12.76
2022-11-23T02:33:11.332Z,12.88
2022-11-23T02:33:23.319Z,12.32
2022-11-23T02:33:40.602Z,12.57
2022-11-23T02:33:52.506Z,13.60
2022-11-23T02:34:04.303Z,13.65
2022-11-23T02:34:17.324Z,13.30
2022-11-23T02:34:29.116Z,12.77
2022-11-23T02:34:40.878Z,12.38
2022-11-23T02:34:52.725Z,11.85
2022-11-23T02:35:04.991Z,11.68
2022-11-23T02:35:17.324Z,11.40
2022-11-23T02:35:29.036Z,11.23
2022-11-23T02:35:55.563Z,11.32
2022-11-23T02:36:52.957Z,12.25
2022-11-23T02:37:04.958Z,12.57
2022-11-23T02:37:17.289Z,11.60
2022-11-23T02:37:29.027Z,12.00
2022-11-23T02:37:40.897Z,14.15
2022-11-23T02:37:52.849Z,15.70
2022-11-23T02:38:05.546Z,17.45
2022-11-23T02:38:18.219Z,17.45
2022-11-23T02:38:33.116Z,16.05
2022-11-23T02:38:45.140Z,14.80
2022-11-23T02:38:57.740Z,13.50
2022-11-23T02:39:31.667Z,13.43
2022-11-23T02:39:52.413Z,13.85
2022-11-23T02:40:09.873Z,13.02
2022-11-23T02:40:33.197Z,12.98
2022-11-23T02:40:45.311Z,13.48
2022-11-23T02:40:57.125Z,13.95
2022-11-23T02:41:09.005Z,12.85
2022-11-23T02:41:20.900Z,12.55
2022-11-23T02:41:44.541Z,11.30
2022-11-23T02:41:56.769Z,10.20
2022-11-23T02:42:08.519Z,9.52
2022-11-23T02:42:20.310Z,8.75
2022-11-23T02:43:30.560Z,10.43
2022-11-23T02:43:42.609Z,10.18
2022-11-23T02:43:56.915Z,9.45
2022-11-23T02:44:23.892Z,9.15
2022-11-23T02:44:54.285Z,9.60
2022-11-23T02:45:31.963Z,8.55
2022-11-23T02:45:48.488Z,6.10
2022-11-23T02:46:01.860Z,6.65
2022-11-23T02:46:13.959Z,7.60
2022-11-23T02:46:34.386Z,8.02
2022-11-23T02:46:46.225Z,7.68
2022-11-23T02:46:58.352Z,7.03
2022-11-23T02:47:11.191Z,7.40
2022-11-23T02:47:23.158Z,7.75
2022-11-23T02:47:34.941Z,7.85
2022-11-23T02:47:48.996Z,7.85
2022-11-23T02:48:00.701Z,7.47
2022-11-23T02:48:12.621Z,7.78
2022-11-23T02:48:24.779Z,7.90
2022-11-23T02:48:36.521Z,7.75
2022-11-23T02:48:48.247Z,7.63
2022-11-23T02:49:00.107Z,7.85
2022-11-23T02:49:12.007Z,7.57
2022-11-23T02:49:24.905Z,7.45
2022-11-23T02:49:36.881Z,7.80
2022-11-23T02:49:49.371Z,7.50
2022-11-23T02:50:01.181Z,7.25
2022-11-23T02:50:13.029Z,6.82
2022-11-23T02:50:24.982Z,7.10
2022-11-23T02:50:36.921Z,7.45
2022-11-23T02:50:48.821Z,7.32
2022-11-23T02:51:00.712Z,6.50
2022-11-23T02:51:12.581Z,6.22
2022-11-23T02:51:24.542Z,6.60
2022-11-23T02:51:36.410Z,7.15
2022-11-23T02:51:48.325Z,7.10
2022-11-23T02:52:00.295Z,6.65
2022-11-23T02:52:12.194Z,6.60
2022-11-23T02:52:23.925Z,6.70
2022-11-23T02:52:35.801Z,6.38
2022-11-23T02:52:47.526Z,6.05
2022-11-23T02:52:59.277Z,5.93
2022-11-23T02:53:11.201Z,6.13
2022-11-23T02:53:22.929Z,6.20
2022-11-23T02:53:34.697Z,5.93
2022-11-23T02:53:46.514Z,6.25
2022-11-23T02:53:58.657Z,6.60
2022-11-23T02:54:10.573Z,6.47
2022-11-23T02:54:22.381Z,6.40
2022-11-23T02:54:34.847Z,6.55
2022-11-23T02:54:46.768Z,6.72
2022-11-23T02:54:58.564Z,6.70
2022-11-23T02:55:10.848Z,7.18
2022-11-23T02:55:22.648Z,7.47
2022-11-23T02:55:34.420Z,7.22
2022-11-23T02:55:46.364Z,6.57
2022-11-23T02:55:58.234Z,6.20
2022-11-23T02:56:10.095Z,6.18
2022-11-23T02:56:21.817Z,6.93
2022-11-23T02:56:33.524Z,6.97
2022-11-23T02:56:45.291Z,6.70
2022-11-23T02:56:57.067Z,6.50
2022-11-23T02:57:09.721Z,6.30